Time;durP1;ratioP1;P1;durP2;ratioP2;P2;SDS_P1;SDS_P2;PMS_P1;PMS_P2;Temp;Humidity;BMP_temperature;BMP_pressure;BME280_temperature;BME280_humidity;BME280_pressure;Samples;Min_cycle;Max_cycle;Signal;HPM_P1;HPM_P2
2023/07/20 00:01:26;;;;;;;;;;;;;;;31.97;30.76;97437.25;5114369;28;19943;-93
2023/07/20 00:03:55;;;;;;;;;;;;;;;32.38;30.48;97448.44;5113037;28;19968;-93
2023/07/20 00:06:25;;;;;;;;;;;;;;;32.47;30.04;97440.50;5114589;28;19931;-93
2023/07/20 00:08:51;;;;;;;;;;;;;;;31.71;30.80;97436.50;5095967;28;19916;-93
2023/07/20 00:11:17;;;;;;;;;;;;;;;31.27;31.80;97428.25;5114381;28;19916;-93
2023/07/20 00:13:43;;;;;;;;;;;;;;;30.78;32.94;97434.84;5114077;28;19964;-93
2023/07/20 00:16:09;;;;;;;;;;;;;;;31.10;32.34;97432.19;5113985;28;19916;-93
2023/07/20 00:18:35;;;;;;;;;;;;;;;31.32;31.83;97424.72;5114148;28;19966;-93
2023/07/20 00:21:01;;;;;;;;;;;;;;;31.41;31.90;97424.53;5113506;28;19945;-92
2023/07/20 00:23:28;;;;;;;;;;;;;;;31.43;31.46;97421.25;5095667;28;20355;-93
2023/07/20 00:25:54;;;;;;;;;;;;;;;31.73;31.21;97425.41;5114183;28;19970;-93
2023/07/20 00:28:20;;;;;;;;;;;;;;;31.98;30.70;97423.84;5114085;28;19915;-93
2023/07/20 00:30:46;;;;;;;;;;;;;;;31.91;30.69;97422.22;5114403;28;20003;-92
2023/07/20 00:33:12;;;;;;;;;;;;;;;31.95;30.69;97417.09;5114076;28;19951;-93
2023/07/20 00:35:39;;;;;;;;;;;;;;;31.74;30.84;97418.44;5113760;28;19946;-93
2023/07/20 00:38:05;;;;;;;;;;;;;;;31.76;30.81;97415.13;5113581;28;19916;-93
2023/07/20 00:40:38;;;;;;;;;;;;;;;32.00;30.55;97412.75;5113048;28;19924;-93
2023/07/20 00:43:04;;;;;;;;;;;;;;;32.21;30.21;97408.53;5113632;28;19915;-93
2023/07/20 00:45:31;;;;;;;;;;;;;;;32.07;29.96;97415.91;5113780;28;19999;-92
2023/07/20 00:47:57;;;;;;;;;;;;;;;31.64;30.51;97408.56;5092357;28;19923;-93
2023/07/20 00:50:24;;;;;;;;;;;;;;;31.47;31.45;97412.50;5093283;28;20280;-93
2023/07/20 00:52:50;;;;;;;;;;;;;;;31.51;31.28;97411.00;5101706;28;19955;-92
2023/07/20 00:55:16;;;;;;;;;;;;;;;31.61;30.98;97418.06;5099862;28;19924;-93
2023/07/20 00:57:42;;;;;;;;;;;;;;;31.67;30.48;97418.91;5093518;28;19989;-93
2023/07/20 01:00:08;;;;;;;;;;;;;;;31.81;30.72;97409.47;5093306;28;19916;-93
2023/07/20 01:02:34;;;;;;;;;;;;;;;31.73;30.84;97413.28;5093477;28;19917;-93
2023/07/20 01:05:00;;;;;;;;;;;;;;;31.52;30.81;97414.63;5093230;28;19930;-92
2023/07/20 01:07:31;;;;;;;;;;;;;;;31.84;30.05;97416.22;5093384;28;20299;-92
2023/07/20 01:10:02;;;;;;;;;;;;;;;32.01;30.28;97417.94;5096319;28;19916;-92
2023/07/20 01:12:35;;;;;;;;;;;;;;;32.19;29.74;97416.00;5097323;28;19923;-92
2023/07/20 01:15:01;;;;;;;;;;;;;;;32.19;29.62;97422.47;5096881;28;19916;-92
2023/07/20 01:17:27;;;;;;;;;;;;;;;32.19;29.87;97427.38;5096874;28;19916;-92
2023/07/20 01:19:53;;;;;;;;;;;;;;;32.15;29.79;97419.09;5096984;28;19916;-92
2023/07/20 01:22:28;;;;;;;;;;;;;;;31.42;31.26;97425.31;5096634;28;19916;-92
2023/07/20 01:25:03;;;;;;;;;;;;;;;31.63;30.62;97412.66;5096547;28;19916;-93
2023/07/20 01:27:52;;;;;;;;;;;;;;;31.45;30.66;97412.22;5095296;28;19916;-92
2023/07/20 01:30:37;;;;;;;;;;;;;;;31.75;30.55;97420.00;5067603;28;19928;-92
2023/07/20 01:33:03;;;;;;;;;;;;;;;31.83;30.74;97429.66;5096291;28;19920;-92
2023/07/20 01:35:30;;;;;;;;;;;;;;;31.78;30.76;97466.50;5096196;28;20022;-90
2023/07/20 01:37:57;;;;;;;;;;;;;;;31.39;31.59;97477.41;5096418;28;19973;-92
2023/07/20 01:40:25;;;;;;;;;;;;;;;30.17;33.80;97489.81;5096514;28;20010;-92
2023/07/20 01:42:51;;;;;;;;;;;;;;;29.68;35.19;97484.81;5096217;28;19943;-90
2023/07/20 01:45:17;;;;;;;;;;;;;;;30.09;34.36;97483.75;5101318;28;19937;-92
2023/07/20 01:47:43;;;;;;;;;;;;;;;30.72;33.31;97498.41;5116461;28;20375;-92
2023/07/20 01:50:10;;;;;;;;;;;;;;;30.99;33.07;97489.56;5116774;28;20015;-94
2023/07/20 01:52:36;;;;;;;;;;;;;;;31.26;32.47;97483.44;5116170;28;19916;-93
2023/07/20 01:55:02;;;;;;;;;;;;;;;31.56;31.82;97475.56;5116467;28;19923;-93
2023/07/20 01:57:28;;;;;;;;;;;;;;;31.66;32.09;97484.69;5116419;28;19915;-92
2023/07/20 01:59:54;;;;;;;;;;;;;;;31.30;32.37;97483.22;5116355;28;20260;-91
2023/07/20 02:02:20;;;;;;;;;;;;;;;31.11;32.75;97487.66;5110471;28;19923;-93
2023/07/20 02:04:46;;;;;;;;;;;;;;;30.97;32.86;97474.31;5095645;28;19916;-92
2023/07/20 02:07:12;;;;;;;;;;;;;;;30.98;32.81;97470.97;5105543;28;19920;-92
2023/07/20 02:09:38;;;;;;;;;;;;;;;31.42;32.04;97462.22;5116250;28;19916;-92
2023/07/20 02:12:04;;;;;;;;;;;;;;;31.54;32.06;97460.31;5116031;28;19961;-92
2023/07/20 02:14:30;;;;;;;;;;;;;;;31.46;32.30;97462.78;5116206;28;19973;-93
2023/07/20 02:16:59;;;;;;;;;;;;;;;31.60;32.01;97461.91;5115899;28;19916;-93
2023/07/20 02:19:26;;;;;;;;;;;;;;;31.97;31.37;97442.94;5108855;28;19917;-93
2023/07/20 02:21:52;;;;;;;;;;;;;;;32.21;30.72;97439.78;5095186;28;19916;-92
2023/07/20 02:24:18;;;;;;;;;;;;;;;32.43;30.95;97442.78;5095527;28;19977;-93
2023/07/20 02:26:44;;;;;;;;;;;;;;;32.66;30.67;97438.03;5095339;28;19923;-92
2023/07/20 02:29:13;;;;;;;;;;;;;;;32.82;30.68;97439.41;5095388;28;20325;-92
2023/07/20 02:31:39;;;;;;;;;;;;;;;32.93;29.99;97436.66;5095634;28;20011;-93
2023/07/20 02:34:05;;;;;;;;;;;;;;;33.04;29.76;97442.41;5077123;28;19974;-93
2023/07/20 02:36:32;;;;;;;;;;;;;;;32.86;29.92;97439.97;5095252;28;19973;-93
2023/07/20 02:38:58;;;;;;;;;;;;;;;33.00;29.79;97439.00;5095160;28;19917;-92
2023/07/20 02:41:24;;;;;;;;;;;;;;;32.75;29.91;97444.31;5095067;28;19916;-93
2023/07/20 02:43:50;;;;;;;;;;;;;;;32.65;30.35;97439.34;5094801;28;19916;-93
2023/07/20 02:46:16;;;;;;;;;;;;;;;32.52;30.66;97436.16;5094982;28;19924;-93
2023/07/20 02:48:42;;;;;;;;;;;;;;;32.50;30.25;97458.63;5094926;28;19916;-93
2023/07/20 02:51:09;;;;;;;;;;;;;;;32.31;30.76;97472.41;5094811;28;19916;-93
2023/07/20 02:53:35;;;;;;;;;;;;;;;32.19;31.01;97470.75;5108448;28;19920;-93
2023/07/20 02:56:01;;;;;;;;;;;;;;;32.19;30.83;97475.66;5115198;28;20444;-93
2023/07/20 02:58:27;;;;;;;;;;;;;;;32.01;30.92;97474.75;5115250;28;19938;-93
2023/07/20 03:00:53;;;;;;;;;;;;;;;31.89;31.17;97484.41;5115090;28;19919;-93
2023/07/20 03:03:19;;;;;;;;;;;;;;;31.51;31.82;97486.88;5115168;28;19916;-93
2023/07/20 03:05:45;;;;;;;;;;;;;;;31.76;31.56;97492.56;5114908;28;19930;-92
2023/07/20 03:08:12;;;;;;;;;;;;;;;31.89;31.30;97490.09;5096843;28;19955;-92
2023/07/20 03:10:38;;;;;;;;;;;;;;;31.93;31.42;97496.31;5114223;28;20287;-92
2023/07/20 03:13:04;;;;;;;;;;;;;;;32.01;31.08;97505.22;5115235;28;19922;-93
2023/07/20 03:15:31;;;;;;;;;;;;;;;32.05;31.17;97500.88;5114949;28;19916;-92
2023/07/20 03:17:58;;;;;;;;;;;;;;;31.99;31.26;97507.78;5114657;28;19916;-92
2023/07/20 03:20:24;;;;;;;;;;;;;;;31.90;31.03;97500.16;5114774;28;19919;-92
2023/07/20 03:22:50;;;;;;;;;;;;;;;31.99;30.93;97505.72;5114720;28;19916;-92
2023/07/20 03:25:17;;;;;;;;;;;;;;;32.16;30.58;97500.16;5114592;28;19923;-92
2023/07/20 03:27:43;;;;;;;;;;;;;;;31.99;31.16;97502.88;5105774;28;19923;-90
2023/07/20 03:30:10;;;;;;;;;;;;;;;31.77;31.43;97499.00;5094244;28;19916;-92
2023/07/20 03:32:37;;;;;;;;;;;;;;;31.16;31.77;97501.09;5093773;28;19917;-91
2023/07/20 03:35:03;;;;;;;;;;;;;;;30.77;32.45;97512.69;5093820;28;20508;-92
2023/07/20 03:37:29;;;;;;;;;;;;;;;30.77;32.77;97514.72;5093884;28;19920;-92
2023/07/20 03:39:55;;;;;;;;;;;;;;;30.70;32.99;97518.75;5094082;28;20390;-92
2023/07/20 03:42:21;;;;;;;;;;;;;;;30.92;32.20;97515.50;5094143;28;19920;-92
2023/07/20 03:44:47;;;;;;;;;;;;;;;30.84;33.06;97522.81;5094466;28;19919;-92
2023/07/20 03:47:13;;;;;;;;;;;;;;;30.41;33.27;97524.47;5094194;28;20325;-91
2023/07/20 03:49:39;;;;;;;;;;;;;;;30.67;32.26;97522.56;5093730;28;20364;-91
2023/07/20 03:52:05;;;;;;;;;;;;;;;30.21;32.77;97527.22;5095801;28;20355;-93
2023/07/20 03:54:31;;;;;;;;;;;;;;;30.40;33.05;97531.41;5114132;28;19920;-92
2023/07/20 03:56:58;;;;;;;;;;;;;;;30.98;31.68;97538.25;5114440;28;19915;-93
2023/07/20 03:59:24;;;;;;;;;;;;;;;31.22;31.53;97548.13;5114498;28;20014;-92
2023/07/20 04:01:50;;;;;;;;;;;;;;;31.31;31.54;97555.72;5104076;28;19916;-93
2023/07/20 04:04:16;;;;;;;;;;;;;;;31.61;30.92;97557.16;5093592;28;20398;-93
2023/07/20 04:06:45;;;;;;;;;;;;;;;31.94;30.33;97554.69;5093920;28;20018;-92
2023/07/20 04:09:12;;;;;;;;;;;;;;;32.19;30.51;97569.41;5093914;28;19920;-93
2023/07/20 04:11:38;;;;;;;;;;;;;;;32.20;29.64;97579.50;5093611;28;19923;-93
2023/07/20 04:14:04;;;;;;;;;;;;;;;31.38;31.56;97580.84;5093759;28;19923;-91
2023/07/20 04:16:30;;;;;;;;;;;;;;;30.98;31.68;97577.94;5093807;28;19962;-92
2023/07/20 04:18:56;;;;;;;;;;;;;;;30.78;32.42;97578.66;5094057;28;19920;-91
2023/07/20 04:21:23;;;;;;;;;;;;;;;31.15;31.84;97587.47;5093689;28;19917;-92
2023/07/20 04:23:49;;;;;;;;;;;;;;;31.39;31.48;97582.41;5093843;28;19924;-93
2023/07/20 04:26:15;;;;;;;;;;;;;;;31.86;30.30;97592.53;5093853;28;20314;-94
2023/07/20 04:28:42;;;;;;;;;;;;;;;32.26;30.05;97594.53;5093628;28;19920;-92
2023/07/20 04:31:12;;;;;;;;;;;;;;;32.32;29.83;97586.84;5093667;28;19922;-92
2023/07/20 04:33:38;;;;;;;;;;;;;;;32.07;31.48;97592.03;5093429;28;19955;-90
2023/07/20 04:36:04;;;;;;;;;;;;;;;31.62;30.53;97609.81;5093781;28;19924;-91
2023/07/20 04:38:30;;;;;;;;;;;;;;;32.14;30.76;97599.31;5093418;28;19923;-92
2023/07/20 04:40:56;;;;;;;;;;;;;;;32.27;29.30;97598.94;5093347;28;19912;-92
2023/07/20 04:43:22;;;;;;;;;;;;;;;32.14;29.47;97609.94;5096145;28;19923;-92
2023/07/20 04:45:50;;;;;;;;;;;;;;;31.69;32.31;97602.94;5097347;28;20299;-91
2023/07/20 04:48:16;;;;;;;;;;;;;;;31.93;30.23;97621.28;5097293;28;19923;-92
2023/07/20 04:50:44;;;;;;;;;;;;;;;31.57;34.53;97621.88;5106370;27;20023;-89
2023/07/20 04:53:11;;;;;;;;;;;;;;;32.16;29.98;97624.41;5108793;27;19920;-90
2023/07/20 04:55:50;;;;;;;;;;;;;;;31.56;30.71;97628.81;5096945;28;20011;-90
2023/07/20 04:58:17;;;;;;;;;;;;;;;30.69;31.47;97633.38;5111771;28;19916;-90
2023/07/20 05:00:43;;;;;;;;;;;;;;;30.69;31.86;97641.88;5117531;28;19920;-89
2023/07/20 05:03:09;;;;;;;;;;;;;;;30.86;31.34;97653.50;5116904;28;19916;-91
2023/07/20 05:05:35;;;;;;;;;;;;;;;30.94;31.03;97656.75;5117188;28;20264;-90
2023/07/20 05:08:01;;;;;;;;;;;;;;;30.92;30.92;97659.31;5117327;28;20019;-90
2023/07/20 05:10:27;;;;;;;;;;;;;;;30.39;33.27;97665.03;5100418;28;19947;-90
2023/07/20 05:12:53;;;;;;;;;;;;;;;29.52;35.01;97668.38;5096604;28;19967;-90
2023/07/20 05:15:19;;;;;;;;;;;;;;;30.45;32.12;97665.94;5096698;28;19923;-89
2023/07/20 05:17:45;;;;;;;;;;;;;;;30.61;32.17;97671.91;5104755;28;19915;-89
2023/07/20 05:20:12;;;;;;;;;;;;;;;30.97;31.50;97673.56;5116875;28;19920;-91
2023/07/20 05:22:41;;;;;;;;;;;;;;;31.34;30.61;97671.06;5116816;28;19916;-91
2023/07/20 05:25:08;;;;;;;;;;;;;;;31.10;31.30;97671.22;5117032;28;19960;-91
2023/07/20 05:27:36;;;;;;;;;;;;;;;30.90;30.97;97667.53;5100690;28;19923;-89
2023/07/20 05:30:02;;;;;;;;;;;;;;;30.63;31.27;97665.75;5096263;28;19920;-90
2023/07/20 05:32:28;;;;;;;;;;;;;;;31.43;30.47;97676.63;5096257;28;19916;-91
2023/07/20 05:34:54;;;;;;;;;;;;;;;31.49;31.27;97679.53;5096328;28;19923;-91
2023/07/20 05:37:21;;;;;;;;;;;;;;;31.86;31.14;97672.03;5096052;28;19932;-91
2023/07/20 05:39:47;;;;;;;;;;;;;;;32.10;30.95;97666.94;5096120;28;19916;-89
2023/07/20 05:42:13;;;;;;;;;;;;;;;32.38;30.05;97664.41;5095945;28;19912;-91
2023/07/20 05:44:39;;;;;;;;;;;;;;;32.65;31.17;97663.94;5096349;28;19916;-89
2023/07/20 05:47:05;;;;;;;;;;;;;;;33.07;28.56;97652.69;5096027;28;19919;-91
2023/07/20 05:49:32;;;;;;;;;;;;;;;33.10;27.74;97657.38;5095993;28;20378;-90
2023/07/20 05:51:58;;;;;;;;;;;;;;;32.76;28.29;97655.50;5101002;27;19984;-92
2023/07/20 05:54:24;;;;;;;;;;;;;;;33.08;27.82;97657.09;5136190;27;19959;-91
2023/07/20 05:56:50;;;;;;;;;;;;;;;33.22;27.58;97652.53;5136829;27;19919;-91
2023/07/20 05:59:16;;;;;;;;;;;;;;;33.25;27.03;97637.28;5136656;27;19926;-91
2023/07/20 06:01:43;;;;;;;;;;;;;;;33.32;28.28;97640.44;5101485;27;19917;-91
2023/07/20 06:04:09;;;;;;;;;;;;;;;33.78;27.14;97647.97;5095661;28;20011;-90
2023/07/20 06:06:35;;;;;;;;;;;;;;;34.01;27.46;97649.59;5095553;28;20015;-91
2023/07/20 06:09:07;;;;;;;;;;;;;;;34.23;26.67;97658.28;5095764;28;19960;-89
2023/07/20 06:11:33;;;;;;;;;;;;;;;34.55;27.73;97653.97;5095439;28;19916;-91
2023/07/20 06:13:59;;;;;;;;;;;;;;;34.29;28.43;97647.66;5095489;28;20247;-90
2023/07/20 06:16:25;;;;;;;;;;;;;;;34.96;25.97;97639.19;5095419;28;19920;-90
2023/07/20 06:18:51;;;;;;;;;;;;;;;35.03;25.76;97648.03;5095947;28;19973;-91
2023/07/20 06:21:17;;;;;;;;;;;;;;;35.32;26.07;97635.28;5108918;28;19915;-90
2023/07/20 06:23:43;;;;;;;;;;;;;;;35.60;25.32;97633.16;5115649;28;20343;-90
2023/07/20 06:26:09;;;;;;;;;;;;;;;35.46;24.87;97633.44;5115775;28;19923;-91
2023/07/20 06:28:36;;;;;;;;;;;;;;;35.64;25.50;97627.94;5115487;28;19916;-91
2023/07/20 06:31:02;;;;;;;;;;;;;;;35.73;25.55;97624.78;5115618;28;19926;-91
2023/07/20 06:33:29;;;;;;;;;;;;;;;35.83;25.05;97634.63;5115525;28;20340;-91
2023/07/20 06:35:56;;;;;;;;;;;;;;;35.77;24.86;97633.91;5096121;28;20374;-91
2023/07/20 06:38:23;;;;;;;;;;;;;;;35.82;23.48;97638.81;5095216;28;20265;-91
2023/07/20 06:40:49;;;;;;;;;;;;;;;35.89;25.29;97635.41;5094846;28;19968;-92
2023/07/20 06:43:15;;;;;;;;;;;;;;;36.37;23.77;97637.78;5076449;28;19916;-91
2023/07/20 06:45:41;;;;;;;;;;;;;;;36.44;24.49;97637.22;5095082;28;20074;-91
2023/07/20 06:48:07;;;;;;;;;;;;;;;36.41;24.91;97637.50;5095238;28;19998;-91
2023/07/20 06:50:33;;;;;;;;;;;;;;;36.43;23.66;97629.91;5094947;28;19943;-91
2023/07/20 06:53:03;;;;;;;;;;;;;;;36.38;24.81;97629.97;5114700;27;19919;-92
2023/07/20 06:55:29;;;;;;;;;;;;;;;36.57;23.97;97631.66;5135846;27;19956;-91
2023/07/20 06:57:55;;;;;;;;;;;;;;;36.49;22.65;97627.84;5135413;27;20359;-91
2023/07/20 07:00:21;;;;;;;;;;;;;;;36.37;23.29;97625.53;5135482;27;19958;-93
2023/07/20 07:02:47;;;;;;;;;;;;;;;36.55;22.58;97637.16;5135470;27;19916;-92
2023/07/20 07:05:15;;;;;;;;;;;;;;;36.52;23.19;97640.31;5134832;27;20357;-91
2023/07/20 07:07:41;;;;;;;;;;;;;;;36.54;22.98;97631.97;5133814;27;19955;-91
2023/07/20 07:10:08;;;;;;;;;;;;;;;36.48;23.16;97636.97;5094474;28;19970;-91
2023/07/20 07:12:35;;;;;;;;;;;;;;;36.35;23.77;97636.75;5094294;28;20291;-91
2023/07/20 07:15:02;;;;;;;;;;;;;;;36.47;23.48;97641.13;5094688;28;19923;-91
2023/07/20 07:17:28;;;;;;;;;;;;;;;36.63;23.66;97631.63;5094470;28;19957;-91
2023/07/20 07:19:56;;;;;;;;;;;;;;;36.73;22.72;97630.00;5094471;28;19916;-91
2023/07/20 07:22:22;;;;;;;;;;;;;;;36.62;23.88;97636.59;5095556;28;19995;-90
2023/07/20 07:24:48;;;;;;;;;;;;;;;35.51;27.12;97632.66;5113237;28;19955;-91
2023/07/20 07:27:16;;;;;;;;;;;;;;;35.20;25.24;97634.53;5075790;28;20291;-89
2023/07/20 07:29:44;;;;;;;;;;;;;;;34.91;25.25;97635.06;5094413;28;20274;-90
2023/07/20 07:32:11;;;;;;;;;;;;;;;35.18;26.44;97642.06;5094164;28;19929;-90
2023/07/20 07:34:37;;;;;;;;;;;;;;;35.10;24.90;97638.94;5094122;28;20353;-90
2023/07/20 07:37:04;;;;;;;;;;;;;;;34.22;28.43;97647.38;5093798;28;19924;-89
2023/07/20 07:39:30;;;;;;;;;;;;;;;34.31;28.04;97650.00;5094000;28;19916;-90
2023/07/20 07:41:56;;;;;;;;;;;;;;;34.08;27.69;97647.06;5094393;28;19922;-90
2023/07/20 07:44:23;;;;;;;;;;;;;;;34.54;25.03;97651.63;5093890;28;20383;-90
2023/07/20 07:46:49;;;;;;;;;;;;;;;34.45;25.29;97649.75;5094069;28;20462;-89
2023/07/20 07:49:15;;;;;;;;;;;;;;;33.96;25.77;97647.50;5093936;28;19948;-90
2023/07/20 07:51:41;;;;;;;;;;;;;;;33.48;27.98;97646.75;5102803;28;19961;-88
2023/07/20 07:54:07;;;;;;;;;;;;;;;32.36;29.02;97652.75;5114205;28;20397;-89
2023/07/20 07:56:33;;;;;;;;;;;;;;;33.74;27.30;97647.44;5114199;28;19916;-90
2023/07/20 07:58:59;;;;;;;;;;;;;;;34.61;25.84;97651.88;5111445;28;20011;-92
2023/07/20 08:01:25;;;;;;;;;;;;;;;33.93;27.04;97649.34;5093715;28;19955;-89
2023/07/20 08:03:51;;;;;;;;;;;;;;;34.31;26.06;97653.59;5093649;28;20359;-90
2023/07/20 08:06:17;;;;;;;;;;;;;;;34.70;25.98;97651.63;5093681;28;20380;-91
2023/07/20 08:08:43;;;;;;;;;;;;;;;34.34;27.42;97655.44;5093663;28;19916;-89
2023/07/20 08:11:10;;;;;;;;;;;;;;;33.83;27.11;97652.91;5093523;28;19927;-89
2023/07/20 08:13:36;;;;;;;;;;;;;;;34.33;26.38;97653.88;5093660;28;20402;-91
2023/07/20 08:16:02;;;;;;;;;;;;;;;34.84;25.41;97651.91;5094210;28;20380;-91
2023/07/20 08:18:28;;;;;;;;;;;;;;;35.21;24.21;97649.59;5096789;28;19959;-90
2023/07/20 08:20:54;;;;;;;;;;;;;;;35.35;25.89;97649.31;5097776;28;19939;-89
2023/07/20 08:23:20;;;;;;;;;;;;;;;35.30;23.68;97655.00;5097306;28;20371;-90
2023/07/20 08:25:46;;;;;;;;;;;;;;;35.49;23.94;97661.72;5106075;28;19920;-89
2023/07/20 08:28:14;;;;;;;;;;;;;;;35.23;25.02;97664.91;5117993;28;19916;-91
2023/07/20 08:30:41;;;;;;;;;;;;;;;35.68;24.48;97664.81;5117900;28;19930;-92
2023/07/20 08:33:07;;;;;;;;;;;;;;;35.43;25.39;97666.66;5113859;28;19916;-90
2023/07/20 08:35:33;;;;;;;;;;;;;;;35.52;25.03;97675.00;5097261;28;19924;-91
2023/07/20 08:37:59;;;;;;;;;;;;;;;35.80;24.85;97675.69;5097322;28;19920;-91
2023/07/20 08:40:25;;;;;;;;;;;;;;;35.42;24.79;97682.25;5097322;28;19923;-91
2023/07/20 08:42:52;;;;;;;;;;;;;;;33.68;26.84;97678.72;5097322;28;19920;-93
2023/07/20 08:45:20;;;;;;;;;;;;;;;34.35;25.92;97682.66;5097500;28;19920;-90
2023/07/20 08:47:47;;;;;;;;;;;;;;;34.40;27.22;97684.72;5097412;28;19916;-90
2023/07/20 08:50:13;;;;;;;;;;;;;;;34.14;27.64;97677.66;5097995;28;20007;-89
2023/07/20 08:52:39;;;;;;;;;;;;;;;34.36;26.87;97681.34;5100881;28;19916;-90
2023/07/20 08:55:06;;;;;;;;;;;;;;;33.95;27.13;97680.16;5117281;28;19916;-92
2023/07/20 08:57:33;;;;;;;;;;;;;;;34.31;25.63;97687.81;5117534;28;20302;-91
2023/07/20 09:00:04;;;;;;;;;;;;;;;34.56;25.82;97688.97;5117451;28;19920;-90
2023/07/20 09:02:35;;;;;;;;;;;;;;;34.83;25.58;97690.28;5117268;28;20371;-89
2023/07/20 09:05:01;;;;;;;;;;;;;;;34.85;25.63;97693.38;5117219;28;19967;-91
2023/07/20 09:07:27;;;;;;;;;;;;;;;34.72;25.59;97693.91;5098124;28;19912;-92
2023/07/20 09:09:56;;;;;;;;;;;;;;;33.74;26.97;97687.31;5117200;28;19938;-88
2023/07/20 09:12:22;;;;;;;;;;;;;;;33.86;27.24;97697.47;5117259;28;19915;-90
2023/07/20 09:14:48;;;;;;;;;;;;;;;32.54;29.31;97700.78;5117055;28;19916;-86
2023/07/20 09:17:15;;;;;;;;;;;;;;;33.37;28.02;97693.75;5117065;28;19965;-88
2023/07/20 09:19:47;;;;;;;;;;;;;;;33.23;27.59;97686.19;5116971;28;19911;-88
2023/07/20 09:22:14;;;;;;;;;;;;;;;31.45;30.70;97685.44;5098191;28;19916;-90
2023/07/20 09:24:41;;;;;;;;;;;;;;;33.40;28.47;97686.28;5096983;28;19942;-88
2023/07/20 09:27:09;;;;;;;;;;;;;;;33.23;27.78;97686.19;5096542;28;20269;-90
2023/07/20 09:29:46;;;;;;;;;;;;;;;33.59;27.46;97684.63;5095280;28;20351;-89
2023/07/20 09:32:13;;;;;;;;;;;;;;;33.09;27.29;97695.66;5096662;28;20008;-88
2023/07/20 09:34:39;;;;;;;;;;;;;;;34.29;26.96;97681.06;5096267;28;19916;-89
2023/07/20 09:37:05;;;;;;;;;;;;;;;34.26;26.47;97685.72;5095750;28;19931;-88
2023/07/20 09:39:31;;;;;;;;;;;;;;;33.33;27.22;97686.75;5078405;28;19920;-92
2023/07/20 09:42:01;;;;;;;;;;;;;;;33.53;27.36;97683.03;5096818;28;19942;-88
2023/07/20 09:44:28;;;;;;;;;;;;;;;32.78;27.95;97683.44;5096241;28;19917;-88
2023/07/20 09:46:54;;;;;;;;;;;;;;;33.79;27.05;97689.41;5096181;28;19923;-91
2023/07/20 09:49:20;;;;;;;;;;;;;;;34.41;27.13;97686.28;5096255;28;19946;-89
2023/07/20 09:51:46;;;;;;;;;;;;;;;34.92;26.11;97687.16;5096998;28;20313;-89
2023/07/20 09:54:13;;;;;;;;;;;;;;;34.81;24.82;97690.81;5116356;28;19919;-91
2023/07/20 09:56:40;;;;;;;;;;;;;;;33.38;27.07;97689.66;5116458;28;19916;-89
2023/07/20 09:59:06;;;;;;;;;;;;;;;34.48;25.86;97696.41;5115623;28;19915;-91
2023/07/20 10:01:34;;;;;;;;;;;;;;;33.93;26.51;97691.28;5116081;28;19988;-88
2023/07/20 10:04:02;;;;;;;;;;;;;;;35.03;26.30;97701.50;5116312;28;19924;-89
2023/07/20 10:06:29;;;;;;;;;;;;;;;34.82;24.86;97692.38;5097859;28;20287;-89
2023/07/20 10:08:59;;;;;;;;;;;;;;;33.26;27.21;97690.06;5116060;28;19951;-89
2023/07/20 10:11:27;;;;;;;;;;;;;;;32.97;27.61;97696.81;5115978;28;19961;-89
2023/07/20 10:13:58;;;;;;;;;;;;;;;33.53;26.91;97691.56;5115895;28;20294;-90
2023/07/20 10:16:52;;;;;;;;;;;;;;;33.61;26.68;97682.03;5115035;28;19916;-90
2023/07/20 10:19:32;;;;;;;;;;;;;;;34.02;26.46;97689.00;5111437;28;20390;-90
2023/07/20 10:22:03;;;;;;;;;;;;;;;35.46;24.73;97691.31;5115634;28;19999;-87
2023/07/20 10:24:31;;;;;;;;;;;;;;;34.84;25.43;97695.50;5096338;28;19923;-88
2023/07/20 10:26:57;;;;;;;;;;;;;;;34.93;23.77;97694.44;5095199;28;19923;-88
2023/07/20 10:29:24;;;;;;;;;;;;;;;34.62;24.45;97692.59;5095326;28;19916;-91
2023/07/20 10:31:50;;;;;;;;;;;;;;;34.93;24.72;97700.94;5095623;28;20359;-88
2023/07/20 10:34:17;;;;;;;;;;;;;;;35.28;24.89;97689.03;5095190;28;19920;-89
2023/07/20 10:36:45;;;;;;;;;;;;;;;34.62;25.30;97689.75;5094590;28;20287;-88
2023/07/20 10:39:22;;;;;;;;;;;;;;;34.88;24.94;97678.09;5095264;28;19923;-91
2023/07/20 10:41:48;;;;;;;;;;;;;;;34.68;24.92;97682.75;5076881;28;20276;-91
2023/07/20 10:44:19;;;;;;;;;;;;;;;34.25;25.63;97669.94;5094884;28;20389;-89
2023/07/20 10:46:46;;;;;;;;;;;;;;;34.62;25.47;97681.97;5095145;28;19916;-88
2023/07/20 10:49:15;;;;;;;;;;;;;;;33.14;26.34;97674.97;5094825;28;20219;-90
2023/07/20 10:51:46;;;;;;;;;;;;;;;35.45;24.92;97677.59;5094703;28;20276;-89
2023/07/20 10:54:18;;;;;;;;;;;;;;;35.42;23.95;97685.13;5102102;27;19951;-87
2023/07/20 10:56:47;;;;;;;;;;;;;;;35.63;23.01;97677.03;5108516;27;19919;-88
2023/07/20 10:59:18;;;;;;;;;;;;;;;34.50;23.76;97674.66;5089509;28;20379;-92
2023/07/20 11:01:45;;;;;;;;;;;;;;;33.89;25.30;97682.19;5115390;28;20291;-87
2023/07/20 11:04:11;;;;;;;;;;;;;;;34.80;24.14;97679.94;5114804;28;19923;-88
2023/07/20 11:06:38;;;;;;;;;;;;;;;35.63;23.63;97671.34;5114522;28;20413;-89
2023/07/20 11:09:05;;;;;;;;;;;;;;;36.24;22.82;97671.13;5115135;28;19977;-88
2023/07/20 11:11:34;;;;;;;;;;;;;;;35.68;23.63;97665.63;5114799;28;19941;-90
2023/07/20 11:14:01;;;;;;;;;;;;;;;35.38;23.39;97664.63;5104948;28;19942;-91
2023/07/20 11:16:37;;;;;;;;;;;;;;;35.68;23.03;97657.03;5093074;28;19973;-89
2023/07/20 11:19:04;;;;;;;;;;;;;;;36.63;23.03;97657.38;5094396;28;20010;-90
2023/07/20 11:21:35;;;;;;;;;;;;;;;36.10;22.62;97664.44;5094726;28;19923;-89
2023/07/20 11:24:03;;;;;;;;;;;;;;;35.03;23.38;97664.41;5108496;28;19916;-91
2023/07/20 11:26:29;;;;;;;;;;;;;;;34.65;24.12;97666.69;5114727;28;19916;-88
2023/07/20 11:28:55;;;;;;;;;;;;;;;35.07;24.90;97664.91;5114537;28;20284;-89
2023/07/20 11:31:21;;;;;;;;;;;;;;;35.12;23.09;97661.28;5114671;28;19916;-89
2023/07/20 11:33:47;;;;;;;;;;;;;;;34.78;23.47;97673.94;5113953;28;19923;-88
2023/07/20 11:36:13;;;;;;;;;;;;;;;35.23;23.11;97669.81;5114217;28;20294;-88
2023/07/20 11:38:42;;;;;;;;;;;;;;;35.24;23.40;97668.53;5114531;28;19924;-89
2023/07/20 11:41:08;;;;;;;;;;;;;;;35.22;23.30;97671.09;5101932;28;20379;-89
2023/07/20 11:43:34;;;;;;;;;;;;;;;34.86;23.88;97669.28;5092641;28;19923;-88
2023/07/20 11:46:01;;;;;;;;;;;;;;;35.40;23.11;97664.88;5094027;28;19916;-88
2023/07/20 11:48:27;;;;;;;;;;;;;;;34.50;24.20;97656.75;5093601;28;19916;-88
2023/07/20 11:50:53;;;;;;;;;;;;;;;35.21;23.86;97664.63;5093818;28;19916;-87
2023/07/20 11:53:19;;;;;;;;;;;;;;;35.62;23.45;97658.34;5101635;28;19915;-87
2023/07/20 11:55:46;;;;;;;;;;;;;;;35.56;24.13;97658.38;5114174;28;19922;-88
2023/07/20 11:58:12;;;;;;;;;;;;;;;35.28;23.61;97657.63;5112424;28;19920;-89
2023/07/20 12:00:41;;;;;;;;;;;;;;;35.80;23.52;97666.34;5114035;28;20341;-88
2023/07/20 12:03:07;;;;;;;;;;;;;;;34.46;24.80;97659.09;5113915;28;19923;-89
2023/07/20 12:05:34;;;;;;;;;;;;;;;33.81;25.37;97661.97;5114215;28;19915;-88
2023/07/20 12:08:00;;;;;;;;;;;;;;;34.08;25.17;97655.63;5114270;28;19930;-88
2023/07/20 12:10:28;;;;;;;;;;;;;;;35.70;23.66;97653.66;5114291;28;19976;-91
2023/07/20 12:12:54;;;;;;;;;;;;;;;35.06;24.16;97647.00;5095868;28;19919;-87
2023/07/20 12:15:20;;;;;;;;;;;;;;;35.65;23.58;97640.16;5113152;28;19923;-88
2023/07/20 12:17:49;;;;;;;;;;;;;;;35.91;23.18;97632.78;5113831;28;19978;-89
2023/07/20 12:20:38;;;;;;;;;;;;;;;36.49;22.37;97636.44;5113974;28;19923;-91
2023/07/20 12:23:13;;;;;;;;;;;;;;;35.57;23.40;97650.59;5114027;28;19916;-89
2023/07/20 12:25:43;;;;;;;;;;;;;;;35.72;23.41;97643.25;5113951;28;19916;-90
2023/07/20 12:28:10;;;;;;;;;;;;;;;36.04;22.92;97646.53;5113793;28;19976;-89
2023/07/20 12:30:37;;;;;;;;;;;;;;;36.28;22.00;97637.31;5113423;28;20279;-88
2023/07/20 12:33:03;;;;;;;;;;;;;;;36.41;20.92;97643.97;5075515;28;19920;-89
2023/07/20 12:35:30;;;;;;;;;;;;;;;37.54;20.68;97634.75;5100356;28;20003;-89
2023/07/20 12:37:56;;;;;;;;;;;;;;;37.57;19.68;97627.19;5114072;28;20298;-89
2023/07/20 12:40:22;;;;;;;;;;;;;;;37.33;20.14;97636.53;5113719;28;20306;-89
2023/07/20 12:42:48;;;;;;;;;;;;;;;37.15;20.80;97620.03;5113683;28;19916;-90
2023/07/20 12:45:15;;;;;;;;;;;;;;;37.53;19.88;97629.59;5113429;28;19958;-88
2023/07/20 12:47:42;;;;;;;;;;;;;;;37.63;18.70;97625.81;5113341;28;20387;-90